Time;durP1;ratioP1;P1;durP2;ratioP2;P2;SDS_P1;SDS_P2;PMS_P1;PMS_P2;Temp;Humidity;BMP_temperature;BMP_pressure;BME280_temperature;BME280_humidity;BME280_pressure;Samples;Min_cycle;Max_cycle;Signal;HPM_P1;HPM_P2
2023/01/04 00:01:45;;;;;;;13.80;9.23;;;5.70;99.90;;;;;;5052925;28;20032;-59
2023/01/04 00:04:11;;;;;;;11.05;7.88;;;5.70;99.90;;;;;;5070577;28;20025;-57
2023/01/04 00:06:36;;;;;;;17.25;9.32;;;5.70;99.90;;;;;;5070627;28;20025;-52
2023/01/04 00:09:02;;;;;;;14.48;8.35;;;5.70;99.90;;;;;;5070778;28;20642;-54
2023/01/04 00:11:27;;;;;;;14.13;8.20;;;5.80;99.90;;;;;;5070574;28;20064;-54
2023/01/04 00:13:56;;;;;;;12.13;8.70;;;5.80;99.90;;;;;;5070029;28;20025;-53
2023/01/04 00:16:23;;;;;;;14.48;8.43;;;5.80;99.90;;;;;;5052558;28;20056;-52
2023/01/04 00:18:50;;;;;;;17.45;10.15;;;5.80;99.90;;;;;;5073105;28;20017;-50
2023/01/04 00:21:17;;;;;;;15.77;8.55;;;5.80;99.90;;;;;;5073957;28;20012;-49
2023/01/04 00:23:45;;;;;;;15.13;9.57;;;5.80;99.90;;;;;;5073301;28;20116;-49
2023/01/04 00:26:13;;;;;;;13.68;8.45;;;5.80;99.90;;;;;;5064582;28;20506;-47
2023/01/04 00:28:39;;;;;;;16.83;9.43;;;5.80;99.90;;;;;;5067506;28;20020;-52
2023/01/04 00:31:06;;;;;;;13.18;8.70;;;5.80;99.90;;;;;;5073826;28;20036;-48
2023/01/04 00:33:32;;;;;;;16.80;9.40;;;5.80;99.90;;;;;;5055339;28;20028;-49
2023/01/04 00:36:06;;;;;;;18.52;9.80;;;5.90;99.90;;;;;;5055474;28;20047;-52
2023/01/04 00:38:33;;;;;;;20.25;12.02;;;5.90;99.90;;;;;;5073720;28;20150;-49
2023/01/04 00:40:59;;;;;;;20.20;12.93;;;5.90;99.90;;;;;;5074814;28;20472;-52
2023/01/04 00:43:25;;;;;;;14.82;10.02;;;6.00;99.90;;;;;;5072719;28;20051;-52
2023/01/04 00:45:51;;;;;;;12.82;9.63;;;6.00;99.90;;;;;;5073483;28;20055;-54
2023/01/04 00:48:16;;;;;;;13.95;9.18;;;6.00;99.90;;;;;;5055153;28;20488;-52
2023/01/04 00:50:43;;;;;;;18.33;10.98;;;6.00;99.90;;;;;;5073260;28;20103;-49
2023/01/04 00:53:10;;;;;;;14.13;9.25;;;6.00;99.90;;;;;;5072723;28;20495;-50
2023/01/04 00:55:36;;;;;;;16.90;10.75;;;6.00;99.90;;;;;;5073190;28;20473;-50
2023/01/04 00:58:01;;;;;;;12.05;8.77;;;5.90;99.90;;;;;;5072549;28;20071;-51
2023/01/04 01:00:27;;;;;;;13.05;9.82;;;5.90;99.90;;;;;;5073006;28;20420;-48
2023/01/04 01:02:52;;;;;;;16.55;10.63;;;5.90;99.90;;;;;;5072330;28;20025;-49
2023/01/04 01:05:18;;;;;;;15.02;9.77;;;5.80;99.90;;;;;;5072961;28;20033;-51
2023/01/04 01:07:43;;;;;;;16.35;10.18;;;5.80;99.90;;;;;;5072917;28;20396;-48
2023/01/04 01:10:09;;;;;;;14.55;10.43;;;5.70;99.90;;;;;;5073243;28;20040;-48
2023/01/04 01:12:34;;;;;;;17.25;10.98;;;5.70;99.90;;;;;;5072658;28;20115;-48
2023/01/04 01:15:00;;;;;;;18.80;10.57;;;5.70;99.90;;;;;;5072970;28;20026;-52
2023/01/04 01:17:25;;;;;;;16.98;10.13;;;5.70;99.90;;;;;;5072022;28;20085;-51
2023/01/04 01:19:51;;;;;;;15.27;10.93;;;5.70;99.90;;;;;;5072680;28;20020;-50
2023/01/04 01:22:16;;;;;;;22.38;10.13;;;5.70;99.90;;;;;;5070518;28;20024;-53
2023/01/04 01:24:42;;;;;;;18.13;11.32;;;5.60;99.90;;;;;;5072185;28;20025;-53
2023/01/04 01:27:07;;;;;;;15.25;10.48;;;5.60;99.90;;;;;;5071496;28;20066;-50
2023/01/04 01:29:33;;;;;;;23.98;12.65;;;5.60;99.90;;;;;;5072602;28;20023;-52
2023/01/04 01:31:58;;;;;;;16.02;10.52;;;5.60;99.90;;;;;;5071937;28;20060;-48
2023/01/04 01:34:24;;;;;;;15.52;10.88;;;5.60;99.90;;;;;;5072237;28;20489;-54
2023/01/04 01:36:49;;;;;;;18.42;11.95;;;5.60;99.90;;;;;;5072870;28;20028;-55
2023/01/04 01:39:15;;;;;;;52.03;27.70;;;5.60;99.90;;;;;;5072425;28;20086;-54
2023/01/04 01:41:40;;;;;;;44.63;27.58;;;5.60;99.90;;;;;;5072687;28;20024;-51
2023/01/04 01:44:41;;;;;;;17.02;12.98;;;5.60;99.90;;;;;;5071913;28;20062;-52
2023/01/04 01:47:13;;;;;;;16.77;12.20;;;5.60;99.90;;;;;;5072271;28;20035;-53
2023/01/04 01:49:41;;;;;;;22.35;13.02;;;5.60;99.90;;;;;;5054759;28;20445;-51
2023/01/04 01:52:15;;;;;;;20.67;13.25;;;5.60;99.90;;;;;;5071655;28;20051;-50
2023/01/04 01:54:44;;;;;;;24.00;13.45;;;5.60;99.90;;;;;;5072043;28;20024;-53
2023/01/04 01:57:13;;;;;;;22.50;12.80;;;5.70;99.90;;;;;;5054176;28;20020;-49
2023/01/04 01:59:41;;;;;;;24.08;13.85;;;5.70;99.90;;;;;;5072060;28;20016;-50
2023/01/04 02:02:07;;;;;;;18.75;13.15;;;5.80;99.90;;;;;;5071142;28;20033;-52
2023/01/04 02:04:35;;;;;;;20.65;13.68;;;5.80;99.90;;;;;;5071967;28;20028;-52
2023/01/04 02:07:01;;;;;;;23.75;14.32;;;5.90;99.90;;;;;;5071945;28;20036;-54
2023/01/04 02:09:30;;;;;;;21.42;13.90;;;5.90;99.90;;;;;;5053056;28;20492;-55
2023/01/04 02:11:55;;;;;;;18.13;13.68;;;5.90;99.90;;;;;;5071112;28;20141;-53
2023/01/04 02:14:26;;;;;;;24.63;14.63;;;5.80;99.90;;;;;;5053650;28;20129;-53
2023/01/04 02:16:58;;;;;;;20.23;13.80;;;5.80;99.90;;;;;;5071707;28;20067;-49
2023/01/04 02:20:06;;;;;;;22.35;15.20;;;5.80;99.90;;;;;;5071706;28;20127;-52
2023/01/04 02:22:59;;;;;;;23.13;14.88;;;5.80;99.90;;;;;;5071110;28;20029;-52
2023/01/04 02:25:58;;;;;;;19.02;14.13;;;5.80;99.90;;;;;;5070568;28;20021;-55
2023/01/04 02:29:03;;;;;;;23.17;14.68;;;5.80;99.90;;;;;;5071476;28;20028;-52
2023/01/04 02:31:34;;;;;;;21.00;15.38;;;5.80;99.90;;;;;;5056947;28;20036;-51
2023/01/04 02:34:17;;;;;;;23.33;15.60;;;5.80;99.90;;;;;;5052650;28;20480;-52
2023/01/04 02:37:11;;;;;;;22.10;15.18;;;5.80;99.90;;;;;;5071559;28;20013;-51
2023/01/04 02:40:38;;;;;;;20.08;15.43;;;5.80;99.90;;;;;;5071435;28;20047;-53
2023/01/04 02:46:16;;;;;;;21.23;14.93;;;5.90;99.90;;;;;;5071412;28;20031;-55
2023/01/04 02:51:34;;;;;;;22.40;15.88;;;5.90;99.90;;;;;;5071466;28;20031;-53
2023/01/04 02:54:09;;;;;;;28.17;16.67;;;5.90;99.90;;;;;;5070560;28;20024;-52
2023/01/04 02:56:46;;;;;;;21.13;15.65;;;5.90;99.90;;;;;;5071330;28;20024;-51
2023/01/04 02:59:39;;;;;;;25.65;17.40;;;5.90;99.90;;;;;;5071303;28;20051;-50
2023/01/04 03:08:10;;;;;;;24.10;16.70;;;6.10;99.90;;;;;;5071439;28;20419;-52
2023/01/04 03:10:41;;;;;;;27.80;17.58;;;6.10;99.90;;;;;;5071148;28;20056;-52
2023/01/04 03:13:18;;;;;;;23.92;17.92;;;6.10;99.90;;;;;;5052888;28;20074;-50
2023/01/04 03:15:50;;;;;;;29.08;17.55;;;6.10;99.90;;;;;;5070981;28;20021;-53
2023/01/04 03:18:20;;;;;;;22.98;17.23;;;6.10;99.90;;;;;;5071097;28;20373;-50
2023/01/04 03:20:48;;;;;;;24.23;17.55;;;6.10;99.90;;;;;;5073038;28;20032;-49
2023/01/04 03:43:08;;;;;;;23.70;15.80;;;6.10;99.90;;;;;;5074462;28;20465;-54
2023/01/04 03:49:59;;;;;;;17.85;12.98;;;6.20;99.90;;;;;;5074648;28;20035;-49
2023/01/04 03:52:28;;;;;;;15.85;12.20;;;6.20;99.90;;;;;;5073472;28;20016;-52
2023/01/04 03:54:56;;;;;;;16.30;12.32;;;6.20;99.90;;;;;;5074422;28;20035;-51
2023/01/04 03:57:22;;;;;;;19.15;13.32;;;6.20;99.90;;;;;;5074262;28;20404;-50
2023/01/04 03:59:52;;;;;;;18.70;12.07;;;6.30;99.90;;;;;;5074261;28;20243;-49
2023/01/04 04:02:23;;;;;;;15.52;12.57;;;6.30;99.90;;;;;;5073448;28;20480;-49
2023/01/04 04:10:16;;;;;;;14.57;12.23;;;6.20;99.90;;;;;;5074237;28;20443;-53
2023/01/04 04:12:42;;;;;;;16.38;12.27;;;6.20;99.90;;;;;;5073415;28;20024;-53
2023/01/04 04:15:08;;;;;;;16.02;11.25;;;6.30;99.90;;;;;;5074015;28;20029;-51
2023/01/04 04:17:33;;;;;;;14.73;12.07;;;6.30;99.90;;;;;;5055869;28;20467;-50
2023/01/04 04:19:59;;;;;;;16.48;12.25;;;6.40;99.90;;;;;;5074021;28;20440;-50
2023/01/04 04:22:24;;;;;;;17.42;11.35;;;6.40;99.90;;;;;;5073091;28;20491;-51
2023/01/04 04:24:50;;;;;;;20.20;12.70;;;6.30;99.90;;;;;;5073913;28;20040;-50
2023/01/04 04:27:15;;;;;;;16.45;12.18;;;6.20;99.90;;;;;;5071701;28;20098;-57
2023/01/04 04:29:41;;;;;;;16.50;11.30;;;6.20;99.90;;;;;;5073738;28;20112;-49
2023/01/04 04:32:06;;;;;;;16.70;11.73;;;6.20;99.90;;;;;;5072640;28;20037;-49
2023/01/04 04:34:32;;;;;;;15.27;10.95;;;6.20;99.90;;;;;;5055528;28;20111;-51
2023/01/04 04:36:57;;;;;;;15.55;11.70;;;6.20;99.90;;;;;;5073326;28;20020;-47
2023/01/04 04:39:23;;;;;;;15.60;11.25;;;6.10;99.90;;;;;;5073748;28;20024;-48
2023/01/04 04:41:48;;;;;;;16.45;11.07;;;6.20;99.90;;;;;;5073182;28;20115;-50
2023/01/04 04:44:19;;;;;;;19.02;11.27;;;6.20;99.90;;;;;;5072803;28;20094;-48
2023/01/04 04:46:46;;;;;;;15.85;10.43;;;6.20;99.90;;;;;;5073500;28;20052;-51
2023/01/04 04:49:12;;;;;;;17.67;11.52;;;6.20;99.90;;;;;;5073426;28;20032;-49
2023/01/04 04:51:39;;;;;;;20.00;12.02;;;6.20;99.90;;;;;;5073485;28;20074;-49
2023/01/04 04:54:05;;;;;;;12.93;10.57;;;6.20;99.90;;;;;;5072504;28;20396;-50
2023/01/04 04:56:31;;;;;;;18.65;11.18;;;6.20;99.90;;;;;;5073021;28;20028;-52
2023/01/04 04:58:56;;;;;;;14.13;10.90;;;6.20;99.90;;;;;;5072931;28;20032;-48
2023/01/04 05:01:22;;;;;;;18.27;10.93;;;6.20;99.90;;;;;;5073289;28;20024;-48
2023/01/04 05:03:47;;;;;;;13.68;10.63;;;6.20;99.90;;;;;;5072108;28;20027;-52
2023/01/04 05:06:13;;;;;;;13.27;11.02;;;6.20;99.90;;;;;;5072881;28;20059;-47
2023/01/04 05:08:39;;;;;;;18.27;10.90;;;6.20;99.90;;;;;;5073489;28;20028;-54
2023/01/04 05:11:11;;;;;;;19.33;11.50;;;6.20;99.90;;;;;;5055584;28;20020;-54
2023/01/04 05:13:36;;;;;;;16.60;11.43;;;6.20;99.90;;;;;;5072994;28;20082;-54
2023/01/04 05:16:03;;;;;;;17.13;11.98;;;6.20;99.90;;;;;;5073519;28;20028;-57
2023/01/04 05:18:29;;;;;;;18.10;12.48;;;6.10;99.90;;;;;;5073201;28;20403;-54
2023/01/04 05:20:54;;;;;;;14.82;10.82;;;6.20;99.90;;;;;;5072693;28;20103;-53
2023/01/04 05:23:21;;;;;;;17.67;11.75;;;6.20;99.90;;;;;;5071966;28;20469;-50
2023/01/04 05:25:52;;;;;;;14.57;10.88;;;6.20;99.90;;;;;;5070798;28;20032;-51
2023/01/04 05:28:18;;;;;;;16.02;10.85;;;6.10;99.90;;;;;;5072458;28;20079;-53
2023/01/04 05:30:49;;;;;;;15.13;9.95;;;6.10;99.90;;;;;;5072555;28;20428;-48
2023/01/04 05:33:25;;;;;;;16.05;11.02;;;6.10;99.90;;;;;;5071812;28;20114;-53
2023/01/04 05:35:52;;;;;;;15.18;10.30;;;6.10;99.90;;;;;;5072191;28;20491;-47
2023/01/04 05:38:19;;;;;;;12.95;10.10;;;6.00;99.90;;;;;;5054497;28;20111;-50
2023/01/04 05:40:45;;;;;;;17.52;9.73;;;6.00;99.90;;;;;;5072430;28;20024;-49
2023/01/04 05:43:12;;;;;;;13.43;11.05;;;6.00;99.90;;;;;;5071003;28;20028;-50
2023/01/04 05:45:38;;;;;;;14.98;10.77;;;6.00;99.90;;;;;;5071837;28;20456;-52
2023/01/04 05:48:03;;;;;;;12.48;10.00;;;6.00;99.90;;;;;;5072043;28;20118;-51
2023/01/04 05:50:29;;;;;;;14.65;10.98;;;6.00;99.90;;;;;;5072037;28;20095;-53
2023/01/04 05:52:55;;;;;;;13.63;10.90;;;6.00;99.90;;;;;;5071381;28;20032;-53
2023/01/04 05:55:20;;;;;;;17.85;10.43;;;6.00;99.90;;;;;;5054091;28;20029;-51
2023/01/04 05:57:46;;;;;;;14.43;10.82;;;6.00;99.90;;;;;;5071962;28;20064;-51
2023/01/04 06:00:13;;;;;;;12.15;9.90;;;5.90;99.90;;;;;;5072004;28;20027;-50
2023/01/04 06:02:39;;;;;;;16.67;10.40;;;5.90;99.90;;;;;;5071201;28;20111;-49
2023/01/04 06:05:05;;;;;;;15.20;9.63;;;5.90;99.90;;;;;;5071769;28;20067;-51
2023/01/04 06:07:30;;;;;;;15.23;9.40;;;5.90;99.90;;;;;;5071685;28;20033;-48
2023/01/04 06:09:56;;;;;;;14.00;10.38;;;5.90;99.90;;;;;;5071663;28;20035;-50
2023/01/04 06:12:22;;;;;;;15.10;9.70;;;5.90;99.90;;;;;;5052918;28;20020;-49
2023/01/04 06:14:47;;;;;;;14.75;9.52;;;5.90;99.90;;;;;;5071636;28;20028;-47
2023/01/04 06:17:13;;;;;;;13.55;10.00;;;5.90;99.90;;;;;;5053582;28;20046;-45
2023/01/04 06:19:38;;;;;;;16.23;9.82;;;5.90;99.90;;;;;;5072091;28;20036;-49
2023/01/04 06:22:04;;;;;;;16.48;10.93;;;6.00;99.90;;;;;;5071131;28;20514;-50
2023/01/04 06:24:29;;;;;;;19.20;11.40;;;5.90;99.90;;;;;;5071753;28;20025;-48
2023/01/04 06:26:55;;;;;;;15.77;11.05;;;6.00;99.90;;;;;;5069989;28;20488;-48
2023/01/04 06:29:20;;;;;;;14.95;10.60;;;6.00;99.90;;;;;;5053440;28;20112;-51
2023/01/04 06:31:46;;;;;;;15.48;9.65;;;6.00;99.90;;;;;;5071074;28;20029;-48
2023/01/04 06:34:13;;;;;;;15.55;10.63;;;6.00;99.90;;;;;;5070922;28;20020;-48
2023/01/04 06:36:39;;;;;;;17.77;10.57;;;6.10;99.90;;;;;;5071484;28;20028;-49
2023/01/04 06:39:06;;;;;;;17.40;11.45;;;6.10;99.90;;;;;;5054449;28;20029;-50
2023/01/04 06:41:31;;;;;;;20.63;10.50;;;6.10;99.90;;;;;;5071424;28;20029;-50
2023/01/04 06:43:57;;;;;;;18.77;10.85;;;6.10;99.90;;;;;;5070812;28;20094;-50
2023/01/04 06:46:22;;;;;;;16.55;10.90;;;6.10;99.90;;;;;;5071190;28;20542;-51
2023/01/04 06:48:48;;;;;;;14.63;11.07;;;6.10;99.90;;;;;;5053222;28;20024;-49
2023/01/04 06:51:14;;;;;;;17.90;11.45;;;6.10;99.90;;;;;;5071456;28;20074;-50
2023/01/04 06:53:40;;;;;;;17.35;10.32;;;6.20;99.90;;;;;;5070731;28;20115;-52
2023/01/04 06:56:07;;;;;;;18.23;11.50;;;6.20;99.90;;;;;;5073809;28;20024;-49
2023/01/04 06:58:33;;;;;;;17.05;11.32;;;6.20;99.90;;;;;;5057641;28;20017;-49
2023/01/04 07:00:59;;;;;;;19.15;12.18;;;6.10;99.90;;;;;;5057418;28;20028;-51
2023/01/04 07:03:24;;;;;;;16.92;11.70;;;6.20;99.90;;;;;;5074575;28;20021;-47
2023/01/04 07:05:51;;;;;;;17.92;11.38;;;6.20;99.90;;;;;;5075080;28;20029;-47
2023/01/04 07:08:16;;;;;;;20.10;11.70;;;6.20;99.90;;;;;;5057027;28;20492;-50
2023/01/04 07:10:42;;;;;;;16.17;10.85;;;6.20;99.90;;;;;;5075618;28;20021;-51
2023/01/04 07:13:08;;;;;;;22.15;10.88;;;6.20;99.90;;;;;;5056565;28;20035;-54
2023/01/04 07:15:34;;;;;;;15.88;11.07;;;6.20;99.90;;;;;;5075281;28;20311;-53
2023/01/04 07:17:59;;;;;;;14.20;9.93;;;6.30;99.90;;;;;;5056938;28;20025;-47
2023/01/04 07:20:25;;;;;;;13.90;10.48;;;6.30;99.90;;;;;;5057054;28;20153;-54
2023/01/04 07:22:51;;;;;;;16.17;11.18;;;6.30;99.90;;;;;;5056470;28;20017;-51
2023/01/04 07:25:16;;;;;;;17.95;10.73;;;6.40;99.90;;;;;;5074672;28;20392;-50
2023/01/04 07:27:42;;;;;;;16.08;10.80;;;6.40;99.90;;;;;;5055439;28;20088;-54
2023/01/04 07:30:08;;;;;;;20.48;11.43;;;6.40;99.90;;;;;;5074925;28;20499;-46
2023/01/04 07:32:34;;;;;;;18.65;10.75;;;6.50;99.90;;;;;;5055945;28;20451;-49
2023/01/04 07:34:59;;;;;;;17.02;11.02;;;6.50;99.90;;;;;;5074429;28;20020;-54
2023/01/04 07:37:25;;;;;;;19.27;11.55;;;6.50;99.90;;;;;;5056458;28;20025;-51
2023/01/04 07:39:50;;;;;;;15.70;10.40;;;6.50;99.90;;;;;;5074517;28;20072;-50
2023/01/04 07:42:17;;;;;;;15.63;11.10;;;6.50;99.90;;;;;;5074021;28;20028;-48
2023/01/04 07:44:43;;;;;;;21.73;11.15;;;6.60;99.90;;;;;;5074477;28;20066;-52
2023/01/04 07:47:09;;;;;;;14.70;10.23;;;6.70;99.90;;;;;;5074329;28;20103;-50
2023/01/04 07:49:35;;;;;;;17.70;10.32;;;6.70;99.90;;;;;;5074460;28;20476;-50
2023/01/04 07:52:01;;;;;;;14.73;9.98;;;6.70;99.90;;;;;;5073650;28;20079;-52
2023/01/04 07:54:26;;;;;;;21.15;10.27;;;6.70;99.90;;;;;;5074176;28;20546;-52
2023/01/04 07:56:52;;;;;;;16.10;9.90;;;6.70;99.90;;;;;;5073880;28;20104;-48
2023/01/04 07:59:20;;;;;;;12.93;9.20;;;6.80;99.90;;;;;;5073816;28;20480;-50
2023/01/04 08:01:46;;;;;;;12.30;8.32;;;6.90;99.90;;;;;;5073872;28;20377;-50
2023/01/04 08:04:13;;;;;;;13.85;8.32;;;6.90;99.90;;;;;;5073681;28;20021;-51
2023/01/04 08:06:41;;;;;;;13.70;8.20;;;6.90;99.90;;;;;;5072893;28;20099;-51
2023/01/04 08:09:07;;;;;;;16.90;8.73;;;7.00;99.90;;;;;;5073768;28;20099;-51
2023/01/04 08:11:33;;;;;;;17.25;8.25;;;7.00;99.90;;;;;;5073918;28;20104;-55
2023/01/04 08:13:59;;;;;;;13.05;8.60;;;7.00;99.90;;;;;;5073342;28;20078;-51
2023/01/04 08:16:27;;;;;;;9.10;7.07;;;7.10;99.90;;;;;;5055827;28;20111;-51
2023/01/04 08:18:54;;;;;;;12.55;8.65;;;7.20;99.90;;;;;;5073687;28;20024;-47
2023/01/04 08:21:20;;;;;;;11.65;6.40;;;7.10;99.90;;;;;;5073476;28;20059;-54
2023/01/04 08:23:45;;;;;;;12.57;7.47;;;7.20;99.90;;;;;;5054708;28;20444;-52
2023/01/04 08:26:13;;;;;;;10.02;6.45;;;7.20;99.90;;;;;;5053766;28;20128;-50
2023/01/04 08:28:38;;;;;;;10.27;7.25;;;7.20;99.90;;;;;;5055625;28;20082;-50
2023/01/04 08:31:08;;;;;;;9.35;6.38;;;7.20;99.90;;;;;;5073655;28;20055;-50
2023/01/04 08:33:35;;;;;;;10.07;6.43;;;7.20;99.90;;;;;;5073051;28;20031;-49
2023/01/04 08:36:12;;;;;;;7.97;6.45;;;7.30;99.90;;;;;;5073479;28;20501;-51
2023/01/04 08:38:38;;;;;;;9.63;5.75;;;7.20;99.90;;;;;;5073489;28;20450;-48
2023/01/04 08:41:05;;;;;;;9.48;6.60;;;7.30;99.90;;;;;;5073660;28;20025;-47
2023/01/04 08:43:30;;;;;;;11.82;6.95;;;7.30;99.90;;;;;;5072608;28;20029;-51
2023/01/04 08:45:56;;;;;;;10.98;6.55;;;7.30;99.90;;;;;;5073333;28;20097;-47
2023/01/04 08:48:22;;;;;;;9.48;5.38;;;7.30;99.90;;;;;;5073160;28;20557;-48
2023/01/04 08:50:47;;;;;;;9.95;5.97;;;7.40;99.90;;;;;;5073338;28;20044;-49
2023/01/04 08:53:13;;;;;;;9.57;4.90;;;7.40;99.90;;;;;;5072534;28;20396;-50
2023/01/04 08:55:38;;;;;;;5.80;4.07;;;7.50;99.90;;;;;;5073023;28;20025;-48
2023/01/04 08:58:06;;;;;;;6.28;2.92;;;7.50;99.90;;;;;;5073153;28;20025;-48
2023/01/04 09:00:31;;;;;;;3.60;3.13;;;7.60;99.90;;;;;;5072729;28;20029;-50
2023/01/04 09:02:57;;;;;;;2.90;2.70;;;7.60;99.90;;;;;;5054323;28;20024;-48
2023/01/04 09:05:24;;;;;;;3.83;2.50;;;7.60;99.90;;;;;;5073228;28;20085;-48
2023/01/04 09:07:50;;;;;;;6.18;2.70;;;7.70;99.90;;;;;;5072749;28;20024;-50
2023/01/04 09:10:16;;;;;;;7.93;3.05;;;7.70;99.90;;;;;;5054861;28;20028;-49
2023/01/04 09:12:42;;;;;;;3.30;2.55;;;7.70;99.90;;;;;;5054005;28;20025;-51
2023/01/04 09:15:07;;;;;;;4.00;2.42;;;7.80;99.90;;;;;;5072805;28;20036;-49
2023/01/04 09:17:33;;;;;;;3.95;2.60;;;7.80;99.90;;;;;;5072176;28;20048;-53
2023/01/04 09:19:58;;;;;;;4.20;2.83;;;7.80;99.90;;;;;;5072612;28;20113;-49
2023/01/04 09:22:24;;;;;;;7.68;2.60;;;7.90;99.90;;;;;;5071898;28;20025;-51
2023/01/04 09:24:50;;;;;;;4.30;2.72;;;7.90;99.90;;;;;;5072512;28;20082;-47
2023/01/04 09:27:15;;;;;;;3.10;2.75;;;7.90;99.90;;;;;;5053554;28;20048;-54
2023/01/04 09:29:41;;;;;;;5.90;3.38;;;7.80;99.90;;;;;;5072943;28;20103;-50
2023/01/04 09:32:06;;;;;;;6.47;3.83;;;7.80;99.90;;;;;;5071748;28;20040;-49
2023/01/04 09:34:31;;;;;;;5.47;3.03;;;7.80;99.90;;;;;;5072307;28;20206;-53
2023/01/04 09:36:57;;;;;;;3.88;3.13;;;7.90;99.90;;;;;;5071895;28;20443;-51
2023/01/04 09:39:25;;;;;;;6.03;3.25;;;7.90;99.90;;;;;;5072135;28;20103;-53
2023/01/04 09:41:57;;;;;;;9.85;3.45;;;7.90;99.90;;;;;;5071928;28;20908;-49
2023/01/04 09:44:45;;;;;;;5.55;3.55;;;7.90;99.90;;;;;;5067073;28;20025;-50
2023/01/04 09:47:17;;;;;;;5.93;3.92;;;8.00;99.90;;;;;;5055031;28;20100;-49
2023/01/04 09:49:46;;;;;;;6.15;3.08;;;8.00;99.90;;;;;;5068079;28;20070;-50
2023/01/04 09:52:18;;;;;;;7.00;3.63;;;8.00;99.90;;;;;;5069830;28;20028;-51
2023/01/04 09:55:02;;;;;;;4.20;3.38;;;8.00;99.90;;;;;;5053620;28;20135;-49
2023/01/04 09:57:29;;;;;;;3.47;2.97;;;8.00;99.90;;;;;;5052313;28;20761;-48
2023/01/04 10:00:04;;;;;;;5.07;3.25;;;8.00;99.90;;;;;;5069820;28;20078;-48
2023/01/04 10:02:46;;;;;;;5.18;3.50;;;8.00;99.90;;;;;;5069662;28;20031;-49
2023/01/04 10:05:20;;;;;;;5.50;4.30;;;8.00;99.90;;;;;;5070955;28;20048;-50
2023/01/04 10:07:45;;;;;;;5.53;3.22;;;8.10;99.90;;;;;;5071102;28;20040;-50
2023/01/04 10:10:16;;;;;;;4.03;2.75;;;8.10;99.90;;;;;;5053081;28;20021;-53
2023/01/04 10:12:42;;;;;;;2.92;2.60;;;8.20;99.90;;;;;;5070386;28;20440;-49
2023/01/04 10:15:17;;;;;;;4.72;2.67;;;8.30;99.90;;;;;;5070838;28;20108;-50
2023/01/04 10:17:54;;;;;;;4.88;2.63;;;8.30;99.90;;;;;;5071004;28;20491;-48
2023/01/04 10:20:57;;;;;;;4.85;3.10;;;8.30;99.90;;;;;;5071452;28;20422;-53
2023/01/04 10:23:23;;;;;;;6.30;3.65;;;8.40;99.90;;;;;;5071210;28;20017;-49
2023/01/04 10:25:59;;;;;;;7.60;5.32;;;8.50;99.90;;;;;;5071713;28;20032;-49
2023/01/04 10:28:57;;;;;;;5.38;3.22;;;8.50;99.90;;;;;;5071442;28;20189;-53
2023/01/04 10:31:35;;;;;;;6.00;2.33;;;8.50;99.90;;;;;;5070933;28;20028;-49
2023/01/04 10:34:19;;;;;;;3.38;2.97;;;8.50;99.90;;;;;;5070986;28;20488;-52
2023/01/04 10:36:46;;;;;;;3.80;2.63;;;8.50;99.90;;;;;;5071426;28;20487;-49
2023/01/04 10:39:17;;;;;;;3.28;2.60;;;8.50;99.90;;;;;;5071434;28;20040;-50
2023/01/04 10:41:56;;;;;;;5.53;2.35;;;8.50;99.90;;;;;;5071405;28;20025;-49
2023/01/04 10:44:36;;;;;;;3.67;2.30;;;8.50;99.90;;;;;;5071238;28;20496;-47
2023/01/04 10:47:25;;;;;;;2.95;2.03;;;8.50;99.90;;;;;;5071317;28;20535;-51
2023/01/04 10:49:59;;;;;;;2.50;2.30;;;8.50;99.90;;;;;;5071300;28;20025;-49
2023/01/04 10:52:38;;;;;;;3.28;2.38;;;8.50;99.90;;;;;;5070780;28;20041;-49
2023/01/04 10:55:21;;;;;;;3.10;2.40;;;8.50;99.90;;;;;;5070625;28;20494;-54
2023/01/04 10:57:58;;;;;;;2.70;2.03;;;8.60;99.90;;;;;;5071265;28;20021;-49
2023/01/04 11:00:32;;;;;;;4.38;2.22;;;8.60;99.90;;;;;;5053097;28;20040;-51
2023/01/04 11:03:13;;;;;;;3.92;2.92;;;8.60;99.90;;;;;;5069519;28;20522;-55
2023/01/04 11:05:42;;;;;;;3.88;1.92;;;8.70;99.90;;;;;;5052822;28;20488;-49
2023/01/04 11:08:19;;;;;;;2.53;1.90;;;8.70;99.90;;;;;;5071012;28;20037;-52
2023/01/04 11:10:54;;;;;;;2.75;2.53;;;8.70;99.90;;;;;;5071159;28;20120;-52
2023/01/04 11:13:21;;;;;;;2.40;2.20;;;8.70;99.90;;;;;;5051673;28;20036;-53
2023/01/04 11:15:46;;;;;;;3.85;2.63;;;8.70;99.90;;;;;;5070998;28;20036;-47
2023/01/04 11:18:13;;;;;;;3.97;2.30;;;8.70;99.90;;;;;;5070753;28;20025;-51
2023/01/04 11:20:39;;;;;;;6.47;2.55;;;8.70;99.90;;;;;;5070711;28;20113;-49
2023/01/04 11:23:20;;;;;;;4.53;2.25;;;8.70;99.90;;;;;;5070234;28;20080;-50
2023/01/04 11:25:54;;;;;;;3.22;2.97;;;8.70;99.90;;;;;;5070771;28;20515;-52
2023/01/04 11:28:46;;;;;;;2.50;2.30;;;8.80;99.90;;;;;;5070748;28;20035;-48
2023/01/04 11:31:41;;;;;;;4.35;2.75;;;8.80;99.90;;;;;;5059661;28;20029;-50
2023/01/04 11:34:07;;;;;;;8.23;2.83;;;8.80;99.90;;;;;;5023063;28;20045;-53
2023/01/04 11:36:38;;;;;;;4.38;2.60;;;8.80;99.90;;;;;;5070622;28;20448;-49
2023/01/04 11:39:16;;;;;;;5.13;2.50;;;8.80;99.90;;;;;;5070240;28;20029;-49
2023/01/04 11:41:56;;;;;;;6.43;2.50;;;8.80;99.90;;;;;;5072693;28;20048;-51
2023/01/04 11:44:23;;;;;;;3.30;2.28;;;8.80;99.90;;;;;;5054400;28;20031;-53
2023/01/04 11:47:04;;;;;;;4.03;2.47;;;8.90;99.90;;;;;;5068125;28;20066;-53
2023/01/04 11:49:35;;;;;;;2.88;2.05;;;8.90;99.90;;;;;;5073915;28;20024;-52
2023/01/04 11:52:00;;;;;;;3.10;2.78;;;8.90;99.90;;;;;;5070444;28;20369;-51
2023/01/04 11:54:26;;;;;;;3.67;2.63;;;8.90;99.90;;;;;;5074487;28;20070;-50
2023/01/04 11:57:00;;;;;;;3.95;2.85;;;9.00;99.90;;;;;;5074325;28;20082;-54
2023/01/04 11:59:27;;;;;;;2.63;2.10;;;9.00;99.90;;;;;;5074491;28;20020;-50
2023/01/04 12:02:25;;;;;;;1.92;1.80;;;9.10;99.90;;;;;;5073958;28;20100;-48
2023/01/04 12:04:52;;;;;;;2.28;1.38;;;9.20;99.90;;;;;;5074418;28;20032;-54
2023/01/04 12:07:34;;;;;;;2.05;1.30;;;9.30;99.90;;;;;;5074440;28;20028;-49
2023/01/04 12:10:01;;;;;;;2.42;1.50;;;9.50;99.90;;;;;;5060345;28;20032;-51
2023/01/04 12:12:30;;;;;;;2.00;1.30;;;9.60;99.90;;;;;;5057951;28;20040;-57
2023/01/04 12:15:03;;;;;;;2.97;1.65;;;9.70;99.90;;;;;;5072671;28;20560;-56
2023/01/04 12:17:43;;;;;;;2.63;1.73;;;9.70;99.90;;;;;;5073915;28;20343;-53
2023/01/04 12:20:19;;;;;;;2.65;1.50;;;9.80;99.90;;;;;;5073910;28;20024;-58
2023/01/04 12:22:45;;;;;;;1.40;1.30;;;9.80;99.90;;;;;;5073155;28;20032;-55
2023/01/04 12:25:22;;;;;;;1.85;1.42;;;9.80;99.90;;;;;;5073724;28;20024;-53
2023/01/04 12:27:50;;;;;;;1.48;1.30;;;9.90;99.90;;;;;;5073385;28;20025;-55
2023/01/04 12:30:34;;;;;;;2.03;1.92;;;9.90;99.90;;;;;;5072328;28;20216;-56
2023/01/04 12:33:28;;;;;;;3.08;1.50;;;9.90;99.90;;;;;;5072745;28;20025;-57
2023/01/04 12:35:59;;;;;;;1.75;1.33;;;9.90;99.90;;;;;;5073375;28;20404;-54
2023/01/04 12:38:54;;;;;;;2.97;1.48;;;9.90;99.90;;;;;;5073401;28;20033;-55
2023/01/04 12:41:33;;;;;;;2.55;1.67;;;9.90;99.90;;;;;;5074955;28;20325;-52
2023/01/04 12:44:00;;;;;;;2.47;1.65;;;9.90;99.90;;;;;;5072501;28;20075;-54
2023/01/04 12:49:27;;;;;;;4.55;1.40;;;10.00;99.90;;;;;;5073364;28;20115;-58
2023/01/04 12:52:08;;;;;;;2.95;1.77;;;10.00;99.90;;;;;;5072966;28;20037;-58
2023/01/04 12:54:53;;;;;;;3.40;1.35;;;10.00;99.90;;;;;;5072389;28;20032;-54
2023/01/04 12:57:38;;;;;;;3.53;1.63;;;10.00;99.90;;;;;;5067408;28;20032;-56
2023/01/04 13:00:07;;;;;;;2.08;1.52;;;10.00;99.90;;;;;;5073572;28;20036;-49
2023/01/04 13:02:34;;;;;;;17.27;11.32;;;10.00;99.90;;;;;;5072791;28;20024;-50
2023/01/04 13:05:18;;;;;;;3.50;1.83;;;10.00;99.90;;;;;;5073070;28;20146;-49
2023/01/04 13:07:46;;;;;;;3.33;1.48;;;10.00;99.90;;;;;;5073375;28;20086;-51
2023/01/04 13:10:19;;;;;;;3.20;1.63;;;10.00;99.90;;;;;;5072241;28;20029;-57
2023/01/04 13:12:53;;;;;;;1.60;1.50;;;10.00;99.90;;;;;;5071746;28;20090;-54
2023/01/04 13:15:40;;;;;;;1.88;1.77;;;10.10;99.90;;;;;;5072051;28;20123;-53
2023/01/04 13:18:36;;;;;;;2.20;2.00;;;10.10;99.90;;;;;;5072579;28;20021;-51
2023/01/04 13:21:14;;;;;;;2.80;1.52;;;10.10;99.90;;;;;;5070328;28;20056;-48
2023/01/04 13:23:53;;;;;;;2.70;1.40;;;10.10;99.90;;;;;;5071755;28;20074;-48
2023/01/04 13:26:47;;;;;;;3.63;1.85;;;10.10;99.90;;;;;;5072166;28;20032;-51
2023/01/04 13:29:15;;;;;;;4.90;1.95;;;10.10;99.90;;;;;;5063358;28;20037;-50
2023/01/04 13:31:50;;;;;;;5.53;1.73;;;10.10;99.90;;;;;;5051332;28;20032;-54
2023/01/04 13:34:41;;;;;;;3.78;2.25;;;10.10;99.90;;;;;;5055736;28;20303;-50
2023/01/04 13:37:10;;;;;;;3.00;1.92;;;10.10;99.90;;;;;;5071145;28;20048;-54
2023/01/04 13:39:36;;;;;;;1.75;1.65;;;10.10;99.90;;;;;;5071984;28;20028;-51
2023/01/04 13:42:03;;;;;;;2.25;1.48;;;10.10;99.90;;;;;;5053148;28;20071;-50
2023/01/04 13:45:01;;;;;;;1.70;1.60;;;10.10;99.90;;;;;;5071633;28;20044;-57
2023/01/04 13:47:33;;;;;;;2.80;1.75;;;10.10;99.90;;;;;;5071920;28;20059;-54